sensor_id;sensor_type;location;lat;lon;timestamp;P1;durP1;ratioP1;P2;durP2;ratioP2
21305;SDS011;10812;51.838;5.838;2022-12-10T00:01:15;45.67;;;20.03;;
21305;SDS011;10812;51.838;5.838;2022-12-10T00:03:44;47.80;;;21.03;;
21305;SDS011;10812;51.838;5.838;2022-12-10T00:06:14;44.50;;;19.97;;
21305;SDS011;10812;51.838;5.838;2022-12-10T00:08:45;41.47;;;18.93;;
21305;SDS011;10812;51.838;5.838;2022-12-10T00:11:14;44.30;;;19.47;;
21305;SDS011;10812;51.838;5.838;2022-12-10T00:13:45;46.83;;;21.37;;
21305;SDS011;10812;51.838;5.838;2022-12-10T00:16:15;53.03;;;21.17;;
21305;SDS011;10812;51.838;5.838;2022-12-10T00:18:45;48.93;;;21.77;;
21305;SDS011;10812;51.838;5.838;2022-12-10T00:21:14;55.67;;;22.50;;
21305;SDS011;10812;51.838;5.838;2022-12-10T00:23:44;49.67;;;21.70;;
21305;SDS011;10812;51.838;5.838;2022-12-10T00:26:13;45.13;;;21.40;;
21305;SDS011;10812;51.838;5.838;2022-12-10T00:28:45;51.77;;;21.70;;
21305;SDS011;10812;51.838;5.838;2022-12-10T00:31:14;45.20;;;20.30;;
21305;SDS011;10812;51.838;5.838;2022-12-10T00:33:44;51.73;;;21.23;;
21305;SDS011;10812;51.838;5.838;2022-12-10T00:36:13;47.33;;;21.70;;
21305;SDS011;10812;51.838;5.838;2022-12-10T00:38:43;55.37;;;21.97;;
21305;SDS011;10812;51.838;5.838;2022-12-10T00:41:12;45.53;;;19.80;;
21305;SDS011;10812;51.838;5.838;2022-12-10T00:43:42;45.40;;;20.77;;
21305;SDS011;10812;51.838;5.838;2022-12-10T00:46:11;43.03;;;19.90;;
21305;SDS011;10812;51.838;5.838;2022-12-10T00:48:40;46.70;;;21.13;;
21305;SDS011;10812;51.838;5.838;2022-12-10T00:51:09;52.07;;;22.37;;
21305;SDS011;10812;51.838;5.838;2022-12-10T00:53:40;49.87;;;20.63;;
21305;SDS011;10812;51.838;5.838;2022-12-10T00:56:09;46.50;;;20.90;;
21305;SDS011;10812;51.838;5.838;2022-12-10T00:58:39;52.13;;;22.10;;
21305;SDS011;10812;51.838;5.838;2022-12-10T01:01:10;43.63;;;20.53;;
21305;SDS011;10812;51.838;5.838;2022-12-10T01:03:40;53.90;;;21.67;;
21305;SDS011;10812;51.838;5.838;2022-12-10T01:06:09;49.60;;;20.40;;
21305;SDS011;10812;51.838;5.838;2022-12-10T01:08:39;47.80;;;20.87;;
21305;SDS011;10812;51.838;5.838;2022-12-10T01:11:08;51.93;;;21.70;;
21305;SDS011;10812;51.838;5.838;2022-12-10T01:13:37;51.00;;;21.87;;
21305;SDS011;10812;51.838;5.838;2022-12-10T01:16:06;50.87;;;20.93;;
21305;SDS011;10812;51.838;5.838;2022-12-10T01:18:37;46.83;;;19.27;;
21305;SDS011;10812;51.838;5.838;2022-12-10T01:21:06;46.47;;;20.83;;
21305;SDS011;10812;51.838;5.838;2022-12-10T01:27:16;57.90;;;22.57;;
21305;SDS011;10812;51.838;5.838;2022-12-10T01:29:45;67.93;;;24.93;;
21305;SDS011;10812;51.838;5.838;2022-12-10T01:32:13;63.50;;;23.43;;
21305;SDS011;10812;51.838;5.838;2022-12-10T01:34:42;54.20;;;23.47;;
21305;SDS011;10812;51.838;5.838;2022-12-10T01:37:10;58.37;;;23.13;;
21305;SDS011;10812;51.838;5.838;2022-12-10T01:39:38;50.03;;;22.17;;
21305;SDS011;10812;51.838;5.838;2022-12-10T01:42:09;49.47;;;21.80;;
21305;SDS011;10812;51.838;5.838;2022-12-10T01:44:59;52.17;;;22.70;;
21305;SDS011;10812;51.838;5.838;2022-12-10T01:47:31;60.17;;;21.80;;
21305;SDS011;10812;51.838;5.838;2022-12-10T01:50:01;54.80;;;21.50;;
21305;SDS011;10812;51.838;5.838;2022-12-10T01:52:30;63.73;;;22.83;;
21305;SDS011;10812;51.838;5.838;2022-12-10T01:54:58;70.60;;;26.23;;
21305;SDS011;10812;51.838;5.838;2022-12-10T01:57:27;84.60;;;29.80;;
21305;SDS011;10812;51.838;5.838;2022-12-10T01:59:56;84.80;;;28.67;;
21305;SDS011;10812;51.838;5.838;2022-12-10T02:02:30;96.63;;;31.33;;
21305;SDS011;10812;51.838;5.838;2022-12-10T02:05:12;113.47;;;34.87;;
21305;SDS011;10812;51.838;5.838;2022-12-10T02:07:52;107.67;;;33.50;;
21305;SDS011;10812;51.838;5.838;2022-12-10T02:10:31;113.43;;;35.10;;
21305;SDS011;10812;51.838;5.838;2022-12-10T02:13:14;86.23;;;30.37;;
21305;SDS011;10812;51.838;5.838;2022-12-10T02:15:47;83.57;;;31.90;;
21305;SDS011;10812;51.838;5.838;2022-12-10T02:18:19;97.73;;;33.73;;
21305;SDS011;10812;51.838;5.838;2022-12-10T02:20:53;68.00;;;28.17;;
21305;SDS011;10812;51.838;5.838;2022-12-10T02:23:26;61.27;;;26.13;;
21305;SDS011;10812;51.838;5.838;2022-12-10T02:25:57;55.97;;;23.77;;
21305;SDS011;10812;51.838;5.838;2022-12-10T02:28:31;54.30;;;24.67;;
21305;SDS011;10812;51.838;5.838;2022-12-10T02:31:07;52.77;;;24.07;;
21305;SDS011;10812;51.838;5.838;2022-12-10T02:33:38;54.10;;;23.27;;
21305;SDS011;10812;51.838;5.838;2022-12-10T02:36:10;43.30;;;21.20;;
21305;SDS011;10812;51.838;5.838;2022-12-10T02:38:41;56.90;;;23.43;;
21305;SDS011;10812;51.838;5.838;2022-12-10T02:41:13;50.00;;;20.77;;
21305;SDS011;10812;51.838;5.838;2022-12-10T02:43:44;47.93;;;19.33;;
21305;SDS011;10812;51.838;5.838;2022-12-10T02:46:15;45.87;;;22.33;;
21305;SDS011;10812;51.838;5.838;2022-12-10T02:48:44;51.33;;;21.47;;
21305;SDS011;10812;51.838;5.838;2022-12-10T02:51:15;52.13;;;22.57;;
21305;SDS011;10812;51.838;5.838;2022-12-10T02:53:43;49.23;;;21.37;;
21305;SDS011;10812;51.838;5.838;2022-12-10T02:56:14;54.43;;;21.57;;
21305;SDS011;10812;51.838;5.838;2022-12-10T02:58:50;46.73;;;19.30;;
21305;SDS011;10812;51.838;5.838;2022-12-10T03:06:59;50.07;;;21.70;;
21305;SDS011;10812;51.838;5.838;2022-12-10T03:09:31;50.47;;;20.70;;
21305;SDS011;10812;51.838;5.838;2022-12-10T03:12:06;47.17;;;21.83;;
21305;SDS011;10812;51.838;5.838;2022-12-10T03:14:40;48.90;;;21.20;;
21305;SDS011;10812;51.838;5.838;2022-12-10T03:17:10;54.03;;;23.40;;
21305;SDS011;10812;51.838;5.838;2022-12-10T03:19:40;50.70;;;22.00;;
21305;SDS011;10812;51.838;5.838;2022-12-10T03:22:12;50.93;;;21.60;;
21305;SDS011;10812;51.838;5.838;2022-12-10T03:24:42;50.63;;;22.03;;
21305;SDS011;10812;51.838;5.838;2022-12-10T03:27:11;50.07;;;22.00;;
21305;SDS011;10812;51.838;5.838;2022-12-10T03:29:41;50.90;;;21.93;;
21305;SDS011;10812;51.838;5.838;2022-12-10T03:32:13;53.77;;;21.83;;
21305;SDS011;10812;51.838;5.838;2022-12-10T03:34:42;55.70;;;21.83;;
21305;SDS011;10812;51.838;5.838;2022-12-10T03:37:13;49.10;;;21.53;;
21305;SDS011;10812;51.838;5.838;2022-12-10T03:39:41;49.30;;;20.80;;
21305;SDS011;10812;51.838;5.838;2022-12-10T03:42:10;49.07;;;21.13;;
21305;SDS011;10812;51.838;5.838;2022-12-10T03:44:38;48.43;;;22.30;;
21305;SDS011;10812;51.838;5.838;2022-12-10T03:47:08;57.17;;;21.73;;
21305;SDS011;10812;51.838;5.838;2022-12-10T03:49:39;59.67;;;22.90;;
21305;SDS011;10812;51.838;5.838;2022-12-10T03:52:08;57.87;;;24.77;;
21305;SDS011;10812;51.838;5.838;2022-12-10T03:54:38;54.53;;;25.13;;
21305;SDS011;10812;51.838;5.838;2022-12-10T03:57:06;62.13;;;23.97;;
21305;SDS011;10812;51.838;5.838;2022-12-10T03:59:34;60.00;;;23.97;;
21305;SDS011;10812;51.838;5.838;2022-12-10T04:02:02;54.07;;;22.13;;
21305;SDS011;10812;51.838;5.838;2022-12-10T04:04:31;61.40;;;24.53;;
21305;SDS011;10812;51.838;5.838;2022-12-10T04:06:59;55.30;;;23.63;;
21305;SDS011;10812;51.838;5.838;2022-12-10T04:09:27;60.63;;;24.17;;
21305;SDS011;10812;51.838;5.838;2022-12-10T04:11:57;54.80;;;23.13;;
21305;SDS011;10812;51.838;5.838;2022-12-10T04:14:26;60.80;;;23.33;;
21305;SDS011;10812;51.838;5.838;2022-12-10T04:17:12;50.27;;;22.13;;
21305;SDS011;10812;51.838;5.838;2022-12-10T04:19:40;56.27;;;23.43;;
21305;SDS011;10812;51.838;5.838;2022-12-10T04:22:08;54.43;;;22.80;;
21305;SDS011;10812;51.838;5.838;2022-12-10T04:28:19;52.77;;;23.40;;
21305;SDS011;10812;51.838;5.838;2022-12-10T04:30:48;59.07;;;24.73;;
21305;SDS011;10812;51.838;5.838;2022-12-10T04:33:16;56.63;;;23.73;;
21305;SDS011;10812;51.838;5.838;2022-12-10T04:35:44;62.43;;;23.10;;
21305;SDS011;10812;51.838;5.838;2022-12-10T04:38:12;58.93;;;23.87;;
21305;SDS011;10812;51.838;5.838;2022-12-10T04:40:40;56.53;;;23.80;;
21305;SDS011;10812;51.838;5.838;2022-12-10T04:43:08;69.27;;;25.20;;
21305;SDS011;10812;51.838;5.838;2022-12-10T04:45:38;54.00;;;25.07;;
21305;SDS011;10812;51.838;5.838;2022-12-10T04:48:06;64.67;;;24.63;;
21305;SDS011;10812;51.838;5.838;2022-12-10T04:50:34;62.40;;;25.93;;
21305;SDS011;10812;51.838;5.838;2022-12-10T04:53:02;58.03;;;23.70;;
21305;SDS011;10812;51.838;5.838;2022-12-10T04:55:30;56.57;;;23.43;;
21305;SDS011;10812;51.838;5.838;2022-12-10T04:57:58;64.17;;;24.20;;
21305;SDS011;10812;51.838;5.838;2022-12-10T05:00:27;67.77;;;26.53;;
21305;SDS011;10812;51.838;5.838;2022-12-10T05:02:56;63.33;;;25.07;;
21305;SDS011;10812;51.838;5.838;2022-12-10T05:05:24;66.77;;;26.27;;
21305;SDS011;10812;51.838;5.838;2022-12-10T05:07:52;65.57;;;23.73;;
21305;SDS011;10812;51.838;5.838;2022-12-10T05:10:22;69.03;;;25.83;;
21305;SDS011;10812;51.838;5.838;2022-12-10T05:12:50;65.40;;;26.10;;
21305;SDS011;10812;51.838;5.838;2022-12-10T05:15:18;61.57;;;24.60;;
21305;SDS011;10812;51.838;5.838;2022-12-10T05:17:46;65.47;;;25.27;;
21305;SDS011;10812;51.838;5.838;2022-12-10T05:20:16;58.20;;;25.23;;
21305;SDS011;10812;51.838;5.838;2022-12-10T05:22:44;67.43;;;26.20;;
21305;SDS011;10812;51.838;5.838;2022-12-10T05:25:29;75.13;;;26.03;;
21305;SDS011;10812;51.838;5.838;2022-12-10T05:28:17;67.40;;;25.70;;
21305;SDS011;10812;51.838;5.838;2022-12-10T05:30:46;68.80;;;26.23;;
21305;SDS011;10812;51.838;5.838;2022-12-10T05:33:14;65.87;;;26.20;;
21305;SDS011;10812;51.838;5.838;2022-12-10T05:35:44;66.27;;;26.17;;
21305;SDS011;10812;51.838;5.838;2022-12-10T05:38:19;64.97;;;24.83;;
21305;SDS011;10812;51.838;5.838;2022-12-10T05:40:47;69.70;;;26.30;;
21305;SDS011;10812;51.838;5.838;2022-12-10T05:43:22;72.00;;;25.13;;
21305;SDS011;10812;51.838;5.838;2022-12-10T05:45:51;68.40;;;25.60;;
21305;SDS011;10812;51.838;5.838;2022-12-10T05:48:19;63.93;;;26.60;;
21305;SDS011;10812;51.838;5.838;2022-12-10T05:50:48;74.03;;;26.73;;
21305;SDS011;10812;51.838;5.838;2022-12-10T05:53:16;77.90;;;26.37;;
21305;SDS011;10812;51.838;5.838;2022-12-10T05:55:44;61.17;;;23.50;;
21305;SDS011;10812;51.838;5.838;2022-12-10T05:58:13;70.77;;;25.17;;
21305;SDS011;10812;51.838;5.838;2022-12-10T06:00:41;75.73;;;25.40;;
21305;SDS011;10812;51.838;5.838;2022-12-10T06:03:09;80.77;;;27.53;;
21305;SDS011;10812;51.838;5.838;2022-12-10T06:05:38;69.27;;;26.37;;
21305;SDS011;10812;51.838;5.838;2022-12-10T06:08:08;69.70;;;27.17;;
21305;SDS011;10812;51.838;5.838;2022-12-10T06:10:36;111.93;;;25.60;;
21305;SDS011;10812;51.838;5.838;2022-12-10T06:13:04;113.87;;;27.67;;
21305;SDS011;10812;51.838;5.838;2022-12-10T06:15:32;121.57;;;28.70;;
21305;SDS011;10812;51.838;5.838;2022-12-10T06:18:00;88.17;;;27.77;;
21305;SDS011;10812;51.838;5.838;2022-12-10T06:20:29;130.83;;;28.40;;
21305;SDS011;10812;51.838;5.838;2022-12-10T06:22:57;114.80;;;29.73;;
21305;SDS011;10812;51.838;5.838;2022-12-10T06:25:26;83.93;;;27.13;;
21305;SDS011;10812;51.838;5.838;2022-12-10T06:27:54;93.33;;;27.30;;
21305;SDS011;10812;51.838;5.838;2022-12-10T06:30:22;87.30;;;26.23;;
21305;SDS011;10812;51.838;5.838;2022-12-10T06:32:50;91.97;;;28.00;;
21305;SDS011;10812;51.838;5.838;2022-12-10T06:35:18;63.03;;;24.13;;
21305;SDS011;10812;51.838;5.838;2022-12-10T06:37:48;88.93;;;25.93;;
21305;SDS011;10812;51.838;5.838;2022-12-10T06:40:16;73.33;;;26.10;;
21305;SDS011;10812;51.838;5.838;2022-12-10T06:42:46;96.50;;;28.30;;
21305;SDS011;10812;51.838;5.838;2022-12-10T06:45:14;80.53;;;26.10;;
21305;SDS011;10812;51.838;5.838;2022-12-10T06:47:42;70.07;;;24.40;;
21305;SDS011;10812;51.838;5.838;2022-12-10T06:50:11;105.57;;;26.00;;
21305;SDS011;10812;51.838;5.838;2022-12-10T06:52:39;74.53;;;22.20;;
21305;SDS011;10812;51.838;5.838;2022-12-10T06:55:07;74.97;;;24.73;;
21305;SDS011;10812;51.838;5.838;2022-12-10T06:57:36;80.77;;;23.57;;
21305;SDS011;10812;51.838;5.838;2022-12-10T07:00:06;82.50;;;23.97;;
21305;SDS011;10812;51.838;5.838;2022-12-10T07:02:35;89.90;;;25.00;;
21305;SDS011;10812;51.838;5.838;2022-12-10T07:05:04;102.90;;;26.70;;
21305;SDS011;10812;51.838;5.838;2022-12-10T07:07:32;81.53;;;24.50;;
21305;SDS011;10812;51.838;5.838;2022-12-10T07:10:00;83.80;;;25.33;;
21305;SDS011;10812;51.838;5.838;2022-12-10T07:12:28;99.83;;;25.67;;
21305;SDS011;10812;51.838;5.838;2022-12-10T07:14:56;71.17;;;23.17;;
21305;SDS011;10812;51.838;5.838;2022-12-10T07:17:26;113.43;;;25.63;;
21305;SDS011;10812;51.838;5.838;2022-12-10T07:19:54;90.20;;;25.20;;
21305;SDS011;10812;51.838;5.838;2022-12-10T07:22:22;83.03;;;25.77;;
21305;SDS011;10812;51.838;5.838;2022-12-10T07:24:50;79.97;;;25.57;;
21305;SDS011;10812;51.838;5.838;2022-12-10T07:27:18;84.50;;;26.13;;
21305;SDS011;10812;51.838;5.838;2022-12-10T07:29:46;65.87;;;24.50;;
21305;SDS011;10812;51.838;5.838;2022-12-10T07:32:14;77.17;;;23.90;;
21305;SDS011;10812;51.838;5.838;2022-12-10T07:34:44;83.83;;;25.70;;
21305;SDS011;10812;51.838;5.838;2022-12-10T07:37:12;92.23;;;25.17;;
21305;SDS011;10812;51.838;5.838;2022-12-10T07:39:40;79.53;;;24.23;;
21305;SDS011;10812;51.838;5.838;2022-12-10T07:42:09;80.83;;;22.90;;
21305;SDS011;10812;51.838;5.838;2022-12-10T07:44:38;76.97;;;25.73;;
21305;SDS011;10812;51.838;5.838;2022-12-10T07:47:12;76.73;;;24.73;;
21305;SDS011;10812;51.838;5.838;2022-12-10T07:49:41;90.07;;;26.30;;
21305;SDS011;10812;51.838;5.838;2022-12-10T07:52:10;72.63;;;25.27;;
21305;SDS011;10812;51.838;5.838;2022-12-10T07:54:38;79.03;;;23.90;;
21305;SDS011;10812;51.838;5.838;2022-12-10T07:57:07;71.93;;;25.43;;
21305;SDS011;10812;51.838;5.838;2022-12-10T07:59:35;71.57;;;25.87;;
21305;SDS011;10812;51.838;5.838;2022-12-10T08:02:03;67.23;;;24.67;;
21305;SDS011;10812;51.838;5.838;2022-12-10T08:04:34;61.43;;;23.53;;
21305;SDS011;10812;51.838;5.838;2022-12-10T08:07:03;67.57;;;23.03;;
21305;SDS011;10812;51.838;5.838;2022-12-10T08:09:33;77.73;;;26.33;;
21305;SDS011;10812;51.838;5.838;2022-12-10T08:12:01;70.80;;;24.67;;
21305;SDS011;10812;51.838;5.838;2022-12-10T08:14:29;61.80;;;23.60;;
21305;SDS011;10812;51.838;5.838;2022-12-10T08:16:58;69.53;;;25.37;;
21305;SDS011;10812;51.838;5.838;2022-12-10T08:19:26;62.53;;;22.73;;
21305;SDS011;10812;51.838;5.838;2022-12-10T08:21:57;61.70;;;21.47;;
21305;SDS011;10812;51.838;5.838;2022-12-10T08:24:25;57.73;;;21.37;;
21305;SDS011;10812;51.838;5.838;2022-12-10T08:26:54;69.23;;;22.37;;
21305;SDS011;10812;51.838;5.838;2022-12-10T08:29:23;61.47;;;21.73;;
21305;SDS011;10812;51.838;5.838;2022-12-10T08:31:51;64.13;;;23.60;;
21305;SDS011;10812;51.838;5.838;2022-12-10T08:34:19;62.50;;;25.00;;
21305;SDS011;10812;51.838;5.838;2022-12-10T08:36:47;69.50;;;23.27;;
21305;SDS011;10812;51.838;5.838;2022-12-10T08:39:15;84.77;;;26.97;;
21305;SDS011;10812;51.838;5.838;2022-12-10T08:41:44;62.73;;;23.13;;
21305;SDS011;10812;51.838;5.838;2022-12-10T08:44:14;76.20;;;22.10;;
21305;SDS011;10812;51.838;5.838;2022-12-10T08:46:42;65.60;;;23.80;;
21305;SDS011;10812;51.838;5.838;2022-12-10T08:49:11;73.73;;;25.10;;
21305;SDS011;10812;51.838;5.838;2022-12-10T08:51:39;96.67;;;27.77;;
21305;SDS011;10812;51.838;5.838;2022-12-10T08:54:07;68.23;;;24.27;;
21305;SDS011;10812;51.838;5.838;2022-12-10T08:56:35;62.57;;;23.70;;
21305;SDS011;10812;51.838;5.838;2022-12-10T08:59:05;87.63;;;24.80;;
21305;SDS011;10812;51.838;5.838;2022-12-10T09:01:35;90.57;;;26.37;;
21305;SDS011;10812;51.838;5.838;2022-12-10T09:04:03;82.97;;;26.17;;
21305;SDS011;10812;51.838;5.838;2022-12-10T09:06:31;76.67;;;24.03;;
21305;SDS011;10812;51.838;5.838;2022-12-10T09:08:59;71.93;;;24.70;;
21305;SDS011;10812;51.838;5.838;2022-12-10T09:11:29;91.03;;;26.00;;
21305;SDS011;10812;51.838;5.838;2022-12-10T09:13:59;75.10;;;26.53;;
21305;SDS011;10812;51.838;5.838;2022-12-10T09:16:28;86.63;;;27.03;;
21305;SDS011;10812;51.838;5.838;2022-12-10T09:18:59;85.13;;;27.43;;
21305;SDS011;10812;51.838;5.838;2022-12-10T09:21:28;84.23;;;27.07;;
21305;SDS011;10812;51.838;5.838;2022-12-10T09:23:57;89.37;;;26.60;;
21305;SDS011;10812;51.838;5.838;2022-12-10T09:26:26;68.97;;;26.73;;
21305;SDS011;10812;51.838;5.838;2022-12-10T09:28:54;81.43;;;26.67;;
21305;SDS011;10812;51.838;5.838;2022-12-10T09:31:24;83.93;;;26.57;;
21305;SDS011;10812;51.838;5.838;2022-12-10T09:33:52;82.07;;;29.57;;
21305;SDS011;10812;51.838;5.838;2022-12-10T09:36:22;85.20;;;29.17;;
21305;SDS011;10812;51.838;5.838;2022-12-10T09:38:58;88.03;;;28.20;;
21305;SDS011;10812;51.838;5.838;2022-12-10T09:41:39;89.57;;;27.90;;
21305;SDS011;10812;51.838;5.838;2022-12-10T09:44:31;78.37;;;24.20;;
21305;SDS011;10812;51.838;5.838;2022-12-10T09:47:09;91.07;;;27.50;;
21305;SDS011;10812;51.838;5.838;2022-12-10T09:52:31;81.10;;;27.80;;
21305;SDS011;10812;51.838;5.838;2022-12-10T09:55:04;75.23;;;27.23;;
21305;SDS011;10812;51.838;5.838;2022-12-10T09:57:38;72.67;;;25.33;;
21305;SDS011;10812;51.838;5.838;2022-12-10T10:00:15;77.87;;;25.03;;
21305;SDS011;10812;51.838;5.838;2022-12-10T10:02:50;79.63;;;25.43;;
21305;SDS011;10812;51.838;5.838;2022-12-10T10:05:21;72.17;;;24.83;;
21305;SDS011;10812;51.838;5.838;2022-12-10T10:07:53;76.10;;;25.93;;
21305;SDS011;10812;51.838;5.838;2022-12-10T10:10:25;88.53;;;26.40;;
21305;SDS011;10812;51.838;5.838;2022-12-10T10:13:00;85.17;;;26.17;;
21305;SDS011;10812;51.838;5.838;2022-12-10T10:15:41;88.53;;;28.07;;
21305;SDS011;10812;51.838;5.838;2022-12-10T10:18:13;75.43;;;25.33;;
21305;SDS011;10812;51.838;5.838;2022-12-10T10:20:45;83.87;;;25.47;;
21305;SDS011;10812;51.838;5.838;2022-12-10T10:23:15;89.63;;;26.57;;
21305;SDS011;10812;51.838;5.838;2022-12-10T10:25:43;75.23;;;25.93;;
21305;SDS011;10812;51.838;5.838;2022-12-10T10:28:16;74.57;;;26.37;;
21305;SDS011;10812;51.838;5.838;2022-12-10T10:30:46;71.67;;;22.87;;
21305;SDS011;10812;51.838;5.838;2022-12-10T10:33:15;74.40;;;25.07;;
21305;SDS011;10812;51.838;5.838;2022-12-10T10:35:44;70.33;;;22.43;;
21305;SDS011;10812;51.838;5.838;2022-12-10T10:38:17;91.57;;;25.27;;
21305;SDS011;10812;51.838;5.838;2022-12-10T10:40:50;73.73;;;26.00;;
21305;SDS011;10812;51.838;5.838;2022-12-10T10:43:20;68.10;;;24.97;;
21305;SDS011;10812;51.838;5.838;2022-12-10T10:45:52;76.00;;;23.77;;
21305;SDS011;10812;51.838;5.838;2022-12-10T10:48:25;66.97;;;25.47;;
21305;SDS011;10812;51.838;5.838;2022-12-10T10:50:54;77.10;;;25.87;;
21305;SDS011;10812;51.838;5.838;2022-12-10T10:53:40;80.03;;;25.43;;
21305;SDS011;10812;51.838;5.838;2022-12-10T10:56:11;75.97;;;24.37;;
21305;SDS011;10812;51.838;5.838;2022-12-10T10:58:46;66.80;;;23.37;;
21305;SDS011;10812;51.838;5.838;2022-12-10T11:01:19;77.63;;;25.53;;
21305;SDS011;10812;51.838;5.838;2022-12-10T11:03:48;75.60;;;24.67;;
21305;SDS011;10812;51.838;5.838;2022-12-10T11:06:20;79.63;;;24.13;;
21305;SDS011;10812;51.838;5.838;2022-12-10T11:08:51;75.80;;;25.40;;
21305;SDS011;10812;51.838;5.838;2022-12-10T11:11:25;70.17;;;23.73;;
21305;SDS011;10812;51.838;5.838;2022-12-10T11:14:13;72.07;;;25.00;;
21305;SDS011;10812;51.838;5.838;2022-12-10T11:16:42;69.70;;;23.33;;
21305;SDS011;10812;51.838;5.838;2022-12-10T11:19:16;68.53;;;23.73;;
21305;SDS011;10812;51.838;5.838;2022-12-10T11:21:47;63.03;;;22.00;;
21305;SDS011;10812;51.838;5.838;2022-12-10T11:24:18;59.90;;;23.10;;
21305;SDS011;10812;51.838;5.838;2022-12-10T11:26:53;77.87;;;23.20;;
21305;SDS011;10812;51.838;5.838;2022-12-10T11:29:32;70.47;;;23.27;;
21305;SDS011;10812;51.838;5.838;2022-12-10T11:35:23;61.13;;;21.97;;
21305;SDS011;10812;51.838;5.838;2022-12-10T11:38:09;66.73;;;20.70;;
21305;SDS011;10812;51.838;5.838;2022-12-10T11:40:48;69.67;;;21.07;;
21305;SDS011;10812;51.838;5.838;2022-12-10T11:43:28;55.03;;;21.37;;
21305;SDS011;10812;51.838;5.838;2022-12-10T11:46:10;58.57;;;21.70;;
21305;SDS011;10812;51.838;5.838;2022-12-10T11:48:53;48.37;;;18.57;;
21305;SDS011;10812;51.838;5.838;2022-12-10T11:51:30;50.53;;;19.20;;
21305;SDS011;10812;51.838;5.838;2022-12-10T11:54:10;55.57;;;21.00;;
21305;SDS011;10812;51.838;5.838;2022-12-10T11:56:52;61.50;;;21.60;;
21305;SDS011;10812;51.838;5.838;2022-12-10T11:59:26;69.77;;;21.27;;
21305;SDS011;10812;51.838;5.838;2022-12-10T12:05:24;61.37;;;20.10;;
21305;SDS011;10812;51.838;5.838;2022-12-10T12:08:04;48.87;;;18.33;;
21305;SDS011;10812;51.838;5.838;2022-12-10T12:10:49;51.67;;;19.33;;
21305;SDS011;10812;51.838;5.838;2022-12-10T12:13:38;52.90;;;17.27;;
21305;SDS011;10812;51.838;5.838;2022-12-10T12:16:15;43.90;;;17.97;;
21305;SDS011;10812;51.838;5.838;2022-12-10T12:18:51;56.77;;;18.80;;
21305;SDS011;10812;51.838;5.838;2022-12-10T12:21:23;58.10;;;19.00;;
21305;SDS011;10812;51.838;5.838;2022-12-10T12:23:52;54.50;;;19.90;;
21305;SDS011;10812;51.838;5.838;2022-12-10T12:26:30;61.13;;;21.57;;
21305;SDS011;10812;51.838;5.838;2022-12-10T12:29:08;71.00;;;20.83;;
21305;SDS011;10812;51.838;5.838;2022-12-10T12:31:44;60.87;;;20.23;;
21305;SDS011;10812;51.838;5.838;2022-12-10T12:34:17;51.47;;;18.10;;
21305;SDS011;10812;51.838;5.838;2022-12-10T12:36:49;52.03;;;19.67;;
21305;SDS011;10812;51.838;5.838;2022-12-10T12:39:20;50.57;;;19.73;;
21305;SDS011;10812;51.838;5.838;2022-12-10T12:41:57;79.50;;;22.60;;
21305;SDS011;10812;51.838;5.838;2022-12-10T12:44:33;68.00;;;22.70;;
21305;SDS011;10812;51.838;5.838;2022-12-10T12:47:19;62.87;;;20.63;;
21305;SDS011;10812;51.838;5.838;2022-12-10T12:49:53;61.73;;;19.80;;
21305;SDS011;10812;51.838;5.838;2022-12-10T12:52:26;64.20;;;21.93;;
21305;SDS011;10812;51.838;5.838;2022-12-10T12:55:04;54.33;;;20.10;;
21305;SDS011;10812;51.838;5.838;2022-12-10T12:57:43;61.17;;;20.70;;
21305;SDS011;10812;51.838;5.838;2022-12-10T13:00:18;49.47;;;17.57;;
21305;SDS011;10812;51.838;5.838;2022-12-10T13:02:58;53.97;;;18.63;;
21305;SDS011;10812;51.838;5.838;2022-12-10T13:05:34;53.30;;;17.87;;
21305;SDS011;10812;51.838;5.838;2022-12-10T13:10:59;62.73;;;20.10;;
21305;SDS011;10812;51.838;5.838;2022-12-10T13:16:49;52.57;;;18.77;;
21305;SDS011;10812;51.838;5.838;2022-12-10T13:19:29;60.13;;;18.77;;
21305;SDS011;10812;51.838;5.838;2022-12-10T13:21:59;51.13;;;18.50;;
21305;SDS011;10812;51.838;5.838;2022-12-10T13:27:54;56.77;;;18.50;;
21305;SDS011;10812;51.838;5.838;2022-12-10T13:30:33;47.53;;;17.43;;
21305;SDS011;10812;51.838;5.838;2022-12-10T13:33:13;57.73;;;19.47;;
21305;SDS011;10812;51.838;5.838;2022-12-10T13:35:54;57.07;;;20.00;;
21305;SDS011;10812;51.838;5.838;2022-12-10T13:38:38;61.87;;;17.70;;
21305;SDS011;10812;51.838;5.838;2022-12-10T13:41:07;54.87;;;19.20;;
21305;SDS011;10812;51.838;5.838;2022-12-10T13:43:54;59.27;;;19.70;;
21305;SDS011;10812;51.838;5.838;2022-12-10T13:46:55;66.87;;;18.63;;
21305;SDS011;10812;51.838;5.838;2022-12-10T13:49:27;56.27;;;19.37;;
21305;SDS011;10812;51.838;5.838;2022-12-10T13:51:57;56.47;;;20.30;;
21305;SDS011;10812;51.838;5.838;2022-12-10T13:54:31;61.70;;;21.33;;
21305;SDS011;10812;51.838;5.838;2022-12-10T13:57:32;71.77;;;20.30;;
21305;SDS011;10812;51.838;5.838;2022-12-10T14:00:17;61.27;;;20.10;;
21305;SDS011;10812;51.838;5.838;2022-12-10T14:02:54;57.40;;;20.43;;
21305;SDS011;10812;51.838;5.838;2022-12-10T14:05:54;65.87;;;20.73;;
21305;SDS011;10812;51.838;5.838;2022-12-10T14:08:34;60.93;;;19.27;;
21305;SDS011;10812;51.838;5.838;2022-12-10T14:11:06;57.67;;;20.70;;
21305;SDS011;10812;51.838;5.838;2022-12-10T14:13:42;70.80;;;21.80;;
21305;SDS011;10812;51.838;5.838;2022-12-10T14:16:14;58.67;;;20.77;;
21305;SDS011;10812;51.838;5.838;2022-12-10T14:18:52;58.77;;;19.83;;
21305;SDS011;10812;51.838;5.838;2022-12-10T14:21:25;67.60;;;19.97;;
21305;SDS011;10812;51.838;5.838;2022-12-10T14:23:53;50.60;;;18.23;;
21305;SDS011;10812;51.838;5.838;2022-12-10T14:26:25;56.70;;;19.87;;
21305;SDS011;10812;51.838;5.838;2022-12-10T14:28:56;59.30;;;19.27;;
21305;SDS011;10812;51.838;5.838;2022-12-10T14:31:26;55.10;;;20.07;;
21305;SDS011;10812;51.838;5.838;2022-12-10T14:33:59;51.83;;;19.67;;
21305;SDS011;10812;51.838;5.838;2022-12-10T14:36:31;47.87;;;17.57;;
21305;SDS011;10812;51.838;5.838;2022-12-10T14:39:04;50.17;;;17.40;;
21305;SDS011;10812;51.838;5.838;2022-12-10T14:41:37;44.10;;;16.73;;
21305;SDS011;10812;51.838;5.838;2022-12-10T14:44:06;51.93;;;18.07;;
21305;SDS011;10812;51.838;5.838;2022-12-10T14:46:39;45.60;;;16.77;;
21305;SDS011;10812;51.838;5.838;2022-12-10T14:49:08;50.63;;;15.93;;
21305;SDS011;10812;51.838;5.838;2022-12-10T14:51:44;50.23;;;17.83;;
21305;SDS011;10812;51.838;5.838;2022-12-10T14:54:26;51.73;;;17.73;;
21305;SDS011;10812;51.838;5.838;2022-12-10T14:56:56;38.40;;;14.23;;
21305;SDS011;10812;51.838;5.838;2022-12-10T14:59:26;43.13;;;17.47;;
21305;SDS011;10812;51.838;5.838;2022-12-10T15:02:02;55.53;;;16.57;;
21305;SDS011;10812;51.838;5.838;2022-12-10T15:04:40;56.43;;;16.13;;
21305;SDS011;10812;51.838;5.838;2022-12-10T15:07:13;47.20;;;16.43;;
21305;SDS011;10812;51.838;5.838;2022-12-10T15:09:44;54.00;;;17.90;;
21305;SDS011;10812;51.838;5.838;2022-12-10T15:14:53;51.50;;;19.93;;
21305;SDS011;10812;51.838;5.838;2022-12-10T15:17:35;51.43;;;18.87;;
21305;SDS011;10812;51.838;5.838;2022-12-10T15:22:53;49.50;;;16.57;;
21305;SDS011;10812;51.838;5.838;2022-12-10T15:25:24;47.77;;;17.00;;